createdAt,value
2019-01-14T00:01:47.741Z,171.27
2019-01-14T00:03:52.047Z,1094.00
2019-01-14T00:05:56.364Z,845.23
2019-01-14T00:08:01.135Z,948.33
2019-01-14T00:10:08.522Z,920.43
2019-01-14T00:12:17.867Z,1314.27
2019-01-14T00:14:22.625Z,543.17
2019-01-14T00:16:26.891Z,706.27
2019-01-14T00:18:31.329Z,646.10
2019-01-14T00:20:35.813Z,1020.70
2019-01-14T00:22:39.991Z,336.90
2019-01-14T00:24:44.167Z,924.90
2019-01-14T00:26:48.345Z,878.17
2019-01-14T00:28:52.516Z,964.67
2019-01-14T00:30:57.067Z,1185.63
2019-01-14T00:33:01.266Z,658.47
2019-01-14T00:35:06.098Z,340.03
2019-01-14T00:37:12.621Z,146.67
2019-01-14T00:39:18.863Z,64.60
2019-01-14T00:41:23.894Z,37.97
2019-01-14T00:43:28.258Z,18.67
2019-01-14T00:45:32.480Z,8.50
2019-01-14T00:47:36.857Z,6.43
2019-01-14T00:49:41.796Z,3.33
2019-01-14T00:51:46.001Z,4.77
2019-01-14T00:53:50.185Z,2.00
2019-01-14T00:55:54.510Z,4.53
2019-01-14T00:57:58.790Z,2.00
2019-01-14T01:00:04.218Z,1.50
2019-01-14T01:02:08.439Z,0.80
2019-01-14T01:04:13.811Z,3.13
2019-01-14T01:06:24.575Z,1.20
2019-01-14T01:08:28.265Z,1.60
2019-01-14T01:10:34.176Z,1.37
2019-01-14T01:12:41.225Z,1.67
2019-01-14T01:14:46.981Z,1.23
2019-01-14T01:16:51.144Z,1.00
2019-01-14T01:18:55.383Z,1.13
2019-01-14T01:21:00.999Z,2.40
2019-01-14T01:23:05.741Z,1.10
2019-01-14T01:25:10.939Z,0.93
2019-01-14T01:27:15.328Z,2.90
2019-01-14T01:29:22.644Z,0.70
2019-01-14T01:31:26.828Z,1.47
2019-01-14T01:33:30.995Z,1.20
2019-01-14T01:35:35.786Z,1.57
2019-01-14T01:37:39.979Z,1.57
2019-01-14T01:39:44.144Z,1.70
2019-01-14T01:41:49.813Z,0.83
2019-01-14T01:43:57.943Z,1.40
2019-01-14T01:46:06.361Z,1.10
2019-01-14T01:48:10.673Z,1.20
2019-01-14T01:50:16.541Z,1.40
2019-01-14T01:52:20.690Z,0.83
2019-01-14T01:54:24.929Z,0.90
2019-01-14T01:56:29.161Z,1.00
2019-01-14T01:58:33.351Z,0.80
2019-01-14T02:00:37.532Z,0.60
2019-01-14T02:02:41.902Z,0.70
2019-01-14T02:04:46.126Z,0.90
2019-01-14T02:06:50.557Z,0.87
2019-01-14T02:08:55.964Z,0.80
2019-01-14T02:11:02.252Z,0.80
2019-01-14T02:13:10.661Z,0.93
2019-01-14T02:15:15.589Z,0.60
2019-01-14T02:17:19.725Z,0.90
2019-01-14T02:19:24.269Z,0.97
2019-01-14T02:21:28.873Z,1.10
2019-01-14T02:23:33.492Z,0.90
2019-01-14T02:25:38.828Z,1.70
2019-01-14T02:27:43.386Z,0.80
2019-01-14T02:29:48.036Z,1.27
2019-01-14T02:31:52.319Z,1.00
2019-01-14T02:33:57.920Z,1.20
2019-01-14T02:36:05.818Z,0.70
2019-01-14T02:38:18.851Z,0.90
2019-01-14T02:40:23.720Z,0.70
2019-01-14T02:42:28.063Z,1.07
2019-01-14T02:44:32.533Z,0.70
2019-01-14T02:46:36.893Z,0.80
2019-01-14T02:48:41.156Z,0.90
2019-01-14T02:50:45.357Z,1.30
2019-01-14T02:52:49.508Z,1.73
2019-01-14T02:54:55.081Z,1.00
2019-01-14T02:57:00.564Z,0.73
2019-01-14T02:59:08.197Z,0.90
2019-01-14T03:01:12.578Z,2.17
2019-01-14T03:03:19.764Z,0.70
2019-01-14T03:05:24.398Z,1.83
2019-01-14T03:07:28.585Z,0.60
2019-01-14T03:09:32.834Z,0.70
2019-01-14T03:11:36.957Z,0.60
2019-01-14T03:13:41.226Z,1.20
2019-01-14T03:15:45.386Z,0.80
2019-01-14T03:17:49.581Z,0.87
2019-01-14T03:19:53.732Z,0.90
2019-01-14T03:21:57.942Z,0.70
2019-01-14T03:24:02.150Z,1.60
2019-01-14T03:26:09.931Z,0.73
2019-01-14T03:28:16.075Z,1.10
2019-01-14T03:30:25.651Z,1.30
2019-01-14T03:32:29.759Z,0.93
2019-01-14T03:34:33.894Z,1.30
2019-01-14T03:36:38.026Z,1.00
2019-01-14T03:38:42.225Z,1.43
2019-01-14T03:40:46.448Z,0.60
2019-01-14T03:42:50.753Z,1.17
2019-01-14T03:44:55.077Z,1.97
2019-01-14T03:46:59.349Z,0.93
2019-01-14T03:49:03.669Z,1.17
2019-01-14T03:51:07.966Z,1.10
2019-01-14T03:53:16.363Z,1.43
2019-01-14T03:55:21.251Z,0.80
2019-01-14T03:57:28.486Z,1.40
2019-01-14T03:59:33.276Z,1.00
2019-01-14T04:01:38.185Z,1.00
2019-01-14T04:03:42.801Z,1.27
2019-01-14T04:05:47.598Z,0.73
2019-01-14T04:07:52.772Z,2.07
2019-01-14T04:09:56.962Z,1.20
2019-01-14T04:12:01.146Z,1.17
2019-01-14T04:14:05.945Z,0.80
2019-01-14T04:16:11.633Z,2.87
2019-01-14T04:18:18.941Z,0.80
2019-01-14T04:20:25.486Z,1.27
2019-01-14T04:22:33.714Z,1.50
2019-01-14T04:24:38.035Z,1.40
2019-01-14T04:26:42.321Z,2.13
2019-01-14T04:28:48.088Z,1.40
2019-01-14T04:30:54.222Z,1.17
2019-01-14T04:33:01.387Z,2.03
2019-01-14T04:35:07.808Z,1.47
2019-01-14T04:37:11.981Z,1.10
2019-01-14T04:39:16.664Z,2.50
2019-01-14T04:41:21.244Z,2.63
2019-01-14T04:43:25.437Z,1.20
2019-01-14T04:45:29.986Z,2.07
2019-01-14T04:47:34.216Z,1.37
2019-01-14T04:49:38.417Z,1.03
2019-01-14T04:51:42.842Z,1.50
2019-01-14T04:53:47.085Z,2.90
2019-01-14T04:55:55.412Z,1.73
2019-01-14T04:58:02.130Z,0.80
2019-01-14T05:00:12.343Z,1.63
2019-01-14T05:02:16.644Z,2.37
2019-01-14T05:04:21.090Z,1.50
2019-01-14T05:06:25.330Z,1.40
2019-01-14T05:08:30.681Z,1.30
2019-01-14T05:10:56.854Z,2.20
2019-01-14T05:13:06.358Z,1.93
2019-01-14T05:15:14.236Z,2.40
2019-01-14T05:17:22.327Z,2.13
2019-01-14T05:19:26.957Z,2.30
2019-01-14T05:21:31.350Z,2.57
2019-01-14T05:23:35.582Z,5.47
2019-01-14T05:25:39.873Z,1.30
2019-01-14T05:27:44.004Z,1.57
2019-01-14T05:29:48.178Z,4.20
2019-01-14T05:31:52.931Z,1.50
2019-01-14T05:34:01.017Z,1.90
2019-01-14T05:36:07.856Z,1.30
2019-01-14T05:38:21.056Z,1.90
2019-01-14T05:40:26.359Z,1.40
2019-01-14T05:42:31.422Z,1.77
2019-01-14T05:44:35.678Z,3.23
2019-01-14T05:46:40.393Z,3.27
2019-01-14T05:48:45.492Z,2.50
2019-01-14T05:50:49.837Z,1.67
2019-01-14T05:52:53.972Z,2.27
2019-01-14T05:54:58.613Z,3.33
2019-01-14T05:57:04.033Z,1.33
2019-01-14T05:59:10.752Z,2.63
2019-01-14T06:01:17.998Z,3.80
2019-01-14T06:03:22.641Z,0.90
2019-01-14T06:05:26.940Z,1.67
2019-01-14T06:07:36.005Z,1.80
2019-01-14T06:09:40.310Z,3.20
2019-01-14T06:11:44.453Z,2.23
2019-01-14T06:13:48.586Z,1.67
2019-01-14T06:15:53.284Z,1.50
2019-01-14T06:17:57.891Z,1.93
2019-01-14T06:20:03.507Z,1.50
2019-01-14T06:22:10.730Z,3.40
2019-01-14T06:24:16.024Z,2.10
2019-01-14T06:26:24.791Z,2.27
2019-01-14T06:28:29.203Z,2.70
2019-01-14T06:30:33.348Z,8.17
2019-01-14T06:32:37.512Z,6.10
2019-01-14T06:34:41.737Z,1.93
2019-01-14T06:36:46.302Z,3.30
2019-01-14T06:38:51.939Z,4.37
2019-01-14T06:40:57.332Z,3.87
2019-01-14T06:43:01.754Z,70.57
2019-01-14T06:45:14.931Z,3.87
2019-01-14T06:47:23.114Z,693.83
2019-01-14T06:49:30.706Z,147.90
2019-01-14T06:51:35.789Z,14.20
2019-01-14T06:53:40.011Z,5.83
2019-01-14T06:55:44.296Z,454.37
2019-01-14T06:57:48.475Z,101.50
2019-01-14T06:59:53.110Z,420.73
2019-01-14T07:01:57.972Z,84.70
2019-01-14T07:04:02.355Z,164.57
2019-01-14T07:06:07.538Z,20.50
2019-01-14T07:08:13.395Z,55.30
2019-01-14T07:10:23.062Z,137.47
2019-01-14T07:12:32.245Z,82.33
2019-01-14T07:14:36.533Z,29.13
2019-01-14T07:16:40.718Z,12.97
2019-01-14T07:18:45.501Z,616.50
2019-01-14T07:20:49.971Z,121.87
2019-01-14T07:22:54.199Z,14.87
2019-01-14T07:24:59.389Z,587.03
2019-01-14T07:27:04.423Z,259.10
2019-01-14T07:29:08.743Z,265.10
2019-01-14T07:31:17.425Z,51.53
2019-01-14T07:33:23.347Z,49.57
2019-01-14T07:35:27.805Z,21.53
2019-01-14T07:37:33.873Z,1038.33
2019-01-14T07:39:38.086Z,114.80
2019-01-14T07:41:42.270Z,23.20
2019-01-14T07:43:46.694Z,8.83
2019-01-14T07:45:54.698Z,9.73
2019-01-14T07:48:06.325Z,89.63
2019-01-14T07:50:11.881Z,860.70
2019-01-14T07:52:16.160Z,221.03
2019-01-14T07:54:20.552Z,245.70
2019-01-14T07:56:24.929Z,123.23
2019-01-14T07:58:29.314Z,62.83
2019-01-14T08:00:33.733Z,31.10
2019-01-14T08:02:38.082Z,15.93
2019-01-14T08:04:42.906Z,7.50
2019-01-14T08:06:47.070Z,87.80
2019-01-14T08:08:51.626Z,315.60
2019-01-14T08:11:00.391Z,541.13
2019-01-14T08:13:12.354Z,503.37
2019-01-14T08:15:15.702Z,51.80
2019-01-14T08:17:20.247Z,37.67
2019-01-14T08:19:24.518Z,16.20
2019-01-14T08:21:29.065Z,91.97
2019-01-14T08:23:33.232Z,167.83
2019-01-14T08:25:37.515Z,17.07
2019-01-14T08:27:41.689Z,102.67
2019-01-14T08:29:45.941Z,22.30
2019-01-14T08:31:50.063Z,34.80
2019-01-14T08:33:54.289Z,464.93
2019-01-14T08:35:59.709Z,98.63
2019-01-14T08:38:05.239Z,183.50
2019-01-14T08:40:13.532Z,15.00
2019-01-14T08:42:18.624Z,122.87
2019-01-14T08:44:26.948Z,33.60
2019-01-14T08:46:31.727Z,10.60
2019-01-14T08:48:35.871Z,527.33
2019-01-14T08:50:40.045Z,128.17
2019-01-14T08:52:44.381Z,925.70
2019-01-14T08:54:48.535Z,123.37
2019-01-14T08:56:52.944Z,380.37
2019-01-14T08:58:57.945Z,84.83
2019-01-14T09:01:05.138Z,239.73
2019-01-14T09:03:12.606Z,42.20
2019-01-14T09:05:19.333Z,11.83
2019-01-14T09:07:23.665Z,22.73
2019-01-14T09:09:28.658Z,643.10
2019-01-14T09:11:33.024Z,804.87
2019-01-14T09:13:39.460Z,187.57
2019-01-14T09:15:43.929Z,36.67
2019-01-14T09:17:48.162Z,12.00
2019-01-14T09:19:52.318Z,11.90
2019-01-14T09:21:57.006Z,11.63
2019-01-14T09:24:01.300Z,6.80
2019-01-14T09:26:07.075Z,4.90
2019-01-14T09:28:13.385Z,6.73
2019-01-14T09:30:27.552Z,332.07
2019-01-14T09:32:27.664Z,50.43
2019-01-14T09:34:31.985Z,81.07
2019-01-14T09:36:36.133Z,844.47
2019-01-14T09:38:40.321Z,834.27
2019-01-14T09:40:44.479Z,71.80
2019-01-14T09:42:48.687Z,521.07
2019-01-14T09:44:52.862Z,673.10
2019-01-14T09:46:57.072Z,128.23
2019-01-14T09:49:01.300Z,82.77
2019-01-14T09:51:06.246Z,105.07
2019-01-14T09:53:11.813Z,56.20
2019-01-14T09:55:18.388Z,400.30
2019-01-14T09:57:30.198Z,48.67
2019-01-14T09:59:34.372Z,21.60
2019-01-14T10:01:38.522Z,166.53
2019-01-14T10:03:42.678Z,406.30
2019-01-14T10:05:46.857Z,306.97
2019-01-14T10:07:51.073Z,187.87
2019-01-14T10:09:56.638Z,98.73
2019-01-14T10:12:00.841Z,720.17
2019-01-14T10:14:05.012Z,146.37
2019-01-14T10:16:09.215Z,45.47
2019-01-14T10:18:14.005Z,22.50
2019-01-14T10:20:19.484Z,12.20
2019-01-14T10:22:26.841Z,276.00
2019-01-14T10:24:33.465Z,14.93
2019-01-14T10:26:38.221Z,11.77
2019-01-14T10:28:42.394Z,8.93
2019-01-14T10:30:46.569Z,4.70
2019-01-14T10:32:54.048Z,480.47
2019-01-14T10:34:58.745Z,10.83
2019-01-14T10:37:05.689Z,416.53
2019-01-14T10:39:09.841Z,22.77
2019-01-14T10:41:14.092Z,14.33
2019-01-14T10:43:18.331Z,18.50
2019-01-14T10:45:23.563Z,9.03
2019-01-14T10:47:27.758Z,19.97
2019-01-14T10:49:32.211Z,32.43
2019-01-14T10:51:36.446Z,4.77
2019-01-14T10:53:40.652Z,4.40
2019-01-14T10:55:44.857Z,523.70
2019-01-14T10:57:49.039Z,19.70
2019-01-14T10:59:53.591Z,11.83
2019-01-14T11:02:00.733Z,5.97
2019-01-14T11:04:10.091Z,13.93
2019-01-14T11:06:14.277Z,3.53
2019-01-14T11:08:18.633Z,3.43
2019-01-14T11:10:23.137Z,4.07
2019-01-14T11:12:27.389Z,3.73
2019-01-14T11:14:32.261Z,6.73
2019-01-14T11:16:36.715Z,7.13
2019-01-14T11:18:48.790Z,3.07
2019-01-14T11:20:53.085Z,2.07
2019-01-14T11:22:58.556Z,1.40
2019-01-14T11:25:04.124Z,2.70
2019-01-14T11:27:09.115Z,2.60
2019-01-14T11:29:14.756Z,2.60
2019-01-14T11:31:19.665Z,2.97
2019-01-14T11:33:23.931Z,80.90
2019-01-14T11:35:28.368Z,392.80
2019-01-14T11:37:32.954Z,235.40
2019-01-14T11:39:37.289Z,935.97
2019-01-14T11:41:43.370Z,632.00
2019-01-14T11:43:47.832Z,571.87
2019-01-14T11:45:51.941Z,556.70
2019-01-14T11:47:56.092Z,134.17
2019-01-14T11:50:00.541Z,20.43
2019-01-14T11:52:07.583Z,648.77
2019-01-14T11:54:13.259Z,461.13
2019-01-14T11:56:20.644Z,753.53
2019-01-14T11:58:24.866Z,1951.60
2019-01-14T12:00:36.254Z,679.80
2019-01-14T12:02:39.493Z,508.40
2019-01-14T12:04:40.823Z,510.63
2019-01-14T12:06:45.109Z,905.53
2019-01-14T12:08:49.349Z,307.80
2019-01-14T12:10:53.566Z,578.13
2019-01-14T12:12:57.768Z,223.60
2019-01-14T12:15:02.047Z,93.40
2019-01-14T12:17:08.083Z,25.53
2019-01-14T12:19:14.757Z,759.83
2019-01-14T12:21:22.255Z,105.97
2019-01-14T12:23:26.475Z,24.13
2019-01-14T12:25:30.661Z,8.23
2019-01-14T12:27:34.938Z,9.70
2019-01-14T12:29:39.294Z,9.17
2019-01-14T12:31:43.512Z,5.63
2019-01-14T12:33:47.648Z,3.03
2019-01-14T12:35:52.310Z,4.30
2019-01-14T12:37:59.286Z,2.30
2019-01-14T12:40:05.734Z,3.70
2019-01-14T12:42:11.806Z,3.93
2019-01-14T12:44:18.162Z,3.30
2019-01-14T12:46:26.698Z,1.27
2019-01-14T12:48:32.272Z,2.20
2019-01-14T12:50:36.764Z,4.87
2019-01-14T12:52:41.467Z,1.60
2019-01-14T12:54:45.960Z,1.97
2019-01-14T12:56:50.179Z,4.70
2019-01-14T12:58:54.598Z,1.73
2019-01-14T13:00:59.073Z,1.53
2019-01-14T13:03:03.453Z,2.43
2019-01-14T13:05:08.943Z,1.50
2019-01-14T13:07:17.416Z,1.50
2019-01-14T13:09:26.854Z,1.87
2019-01-14T13:11:34.195Z,1.97
2019-01-14T13:13:40.017Z,548.90
2019-01-14T13:15:44.423Z,475.77
2019-01-14T13:17:48.644Z,161.53
2019-01-14T13:19:52.832Z,42.93
2019-01-14T13:21:57.594Z,282.80
2019-01-14T13:24:02.642Z,9.80
2019-01-14T13:26:06.812Z,292.50
2019-01-14T13:28:11.094Z,211.30
2019-01-14T13:30:25.580Z,119.93
2019-01-14T13:32:35.853Z,33.63
2019-01-14T13:34:44.765Z,10.13
2019-01-14T13:36:46.350Z,5.73
2019-01-14T13:38:53.979Z,3.20
2019-01-14T13:40:59.602Z,8.20
2019-01-14T13:43:08.494Z,6.80
2019-01-14T13:45:14.773Z,2.60
2019-01-14T13:47:19.553Z,30.13
2019-01-14T13:49:24.182Z,164.37
2019-01-14T13:51:28.511Z,796.53
2019-01-14T13:53:33.147Z,584.00
2019-01-14T13:55:37.469Z,650.40
2019-01-14T13:57:41.635Z,751.20
2019-01-14T13:59:46.443Z,224.60
2019-01-14T14:01:52.750Z,61.07
2019-01-14T14:03:59.501Z,11.20
2019-01-14T14:06:12.366Z,442.00
2019-01-14T14:08:16.747Z,661.53
2019-01-14T14:10:31.267Z,1930.13
2019-01-14T14:12:36.401Z,253.10
2019-01-14T14:14:40.682Z,498.83
2019-01-14T14:16:44.845Z,340.60
2019-01-14T14:18:49.279Z,85.47
2019-01-14T14:20:54.910Z,8.93
2019-01-14T14:23:04.370Z,4.37
2019-01-14T14:25:11.367Z,4.80
2019-01-14T14:27:16.182Z,3.27
2019-01-14T14:29:20.546Z,6.37
2019-01-14T14:31:25.033Z,7.97
2019-01-14T14:33:29.330Z,3.80
2019-01-14T14:35:34.009Z,2.40
2019-01-14T14:37:38.308Z,2.30
2019-01-14T14:39:48.511Z,2.30
2019-01-14T14:41:48.480Z,2.80
2019-01-14T14:43:52.713Z,3.30
2019-01-14T14:45:56.921Z,789.53
2019-01-14T14:48:02.925Z,625.70
2019-01-14T14:50:11.734Z,197.97
2019-01-14T14:52:19.561Z,687.10
2019-01-14T14:54:23.839Z,532.63
2019-01-14T14:56:28.186Z,111.30
2019-01-14T14:58:32.416Z,717.70
2019-01-14T15:00:37.218Z,46.83
2019-01-14T15:02:41.402Z,182.47
2019-01-14T15:04:45.878Z,69.77
2019-01-14T15:06:50.471Z,10.47
2019-01-14T15:08:59.614Z,8.10
2019-01-14T15:11:06.062Z,10.97
2019-01-14T15:13:17.831Z,5.80
2019-01-14T15:15:25.561Z,4.50
2019-01-14T15:17:29.819Z,1.70
2019-01-14T15:19:36.852Z,4.70
2019-01-14T15:21:41.585Z,4.63
2019-01-14T15:23:47.177Z,12.40
2019-01-14T15:25:51.815Z,410.83
2019-01-14T15:27:56.520Z,689.57
2019-01-14T15:30:04.956Z,161.73
2019-01-14T15:32:18.021Z,20.50
2019-01-14T15:34:27.384Z,4.30
2019-01-14T15:36:35.295Z,3.10
2019-01-14T15:38:50.479Z,5.47
2019-01-14T15:40:56.604Z,6.57
2019-01-14T15:43:01.632Z,2.00
2019-01-14T15:45:13.610Z,2.60
2019-01-14T15:47:25.059Z,5.40
2019-01-14T15:49:33.433Z,5.93
2019-01-14T15:51:38.047Z,2.17
2019-01-14T15:53:42.855Z,1.23
2019-01-14T15:55:50.855Z,2.67
2019-01-14T15:57:58.074Z,1.77
2019-01-14T16:00:09.959Z,1.50
2019-01-14T16:02:19.464Z,1.70
2019-01-14T16:04:28.775Z,2.80
2019-01-14T16:06:34.861Z,1.40
2019-01-14T16:08:48.377Z,2.80
2019-01-14T16:10:53.827Z,1.40
2019-01-14T16:12:58.351Z,2.40
2019-01-14T16:15:06.994Z,1.40
2019-01-14T16:17:11.317Z,1.30
2019-01-14T16:19:17.280Z,1.47
2019-01-14T16:21:24.426Z,1.60
2019-01-14T16:23:36.676Z,1.40
2019-01-14T16:25:44.146Z,1.30
2019-01-14T16:27:54.614Z,1.40
2019-01-14T16:30:05.598Z,1.83
2019-01-14T16:32:12.809Z,1.23
2019-01-14T16:34:18.539Z,1.30
2019-01-14T16:36:37.334Z,1.33
2019-01-14T16:38:45.496Z,1.20
2019-01-14T16:40:53.150Z,1.10
2019-01-14T16:43:04.797Z,1.70
2019-01-14T16:45:13.473Z,1.33
2019-01-14T16:47:21.508Z,1.63
2019-01-14T16:49:29.778Z,1.80
2019-01-14T16:51:34.628Z,1.40
2019-01-14T16:53:40.318Z,1.00
2019-01-14T16:55:54.830Z,1.07
2019-01-14T16:58:08.831Z,1.57
2019-01-14T17:00:18.302Z,1.47
2019-01-14T17:02:24.094Z,7.00
2019-01-14T17:04:28.452Z,1.20
2019-01-14T17:06:42.006Z,1.40
2019-01-14T17:08:49.293Z,1.77
2019-01-14T17:10:58.841Z,1.00
2019-01-14T17:13:16.794Z,1.20
2019-01-14T17:15:24.071Z,2.80
2019-01-14T17:17:33.309Z,1.67
2019-01-14T17:19:39.323Z,86.17
2019-01-14T17:21:48.330Z,1.50
2019-01-14T17:23:53.366Z,120.13
2019-01-14T17:26:07.650Z,1180.27
2019-01-14T17:28:20.504Z,220.90
2019-01-14T17:30:25.461Z,36.13
2019-01-14T17:32:32.075Z,6.57
2019-01-14T17:34:38.113Z,1454.20
2019-01-14T17:36:44.991Z,650.33
2019-01-14T17:38:53.162Z,293.30
2019-01-14T17:41:04.035Z,46.60
2019-01-14T17:43:22.314Z,22.53
2019-01-14T17:45:27.036Z,497.63
2019-01-14T17:47:34.333Z,904.77
2019-01-14T17:49:40.372Z,363.63
2019-01-14T17:51:45.903Z,96.03
2019-01-14T17:53:52.338Z,11.83
2019-01-14T17:56:07.053Z,286.67
2019-01-14T17:58:17.155Z,129.67
2019-01-14T18:00:30.709Z,27.30
2019-01-14T18:02:37.972Z,684.37
2019-01-14T18:04:43.098Z,290.97
2019-01-14T18:06:48.058Z,54.07
2019-01-14T18:08:52.818Z,18.10
2019-01-14T18:11:01.849Z,458.23
2019-01-14T18:13:06.985Z,312.33
2019-01-14T18:15:13.719Z,51.77
2019-01-14T18:17:26.491Z,9.50
2019-01-14T18:19:34.077Z,4.27
2019-01-14T18:21:39.593Z,4.87
2019-01-14T18:23:45.540Z,893.50
2019-01-14T18:25:50.313Z,206.43
2019-01-14T18:27:58.011Z,168.57
2019-01-14T18:30:03.453Z,1330.73
2019-01-14T18:32:12.262Z,561.10
2019-01-14T18:34:21.305Z,479.60
2019-01-14T18:36:27.553Z,162.03
2019-01-14T18:38:32.155Z,348.27
2019-01-14T18:40:47.118Z,1854.93
2019-01-14T18:42:49.823Z,1249.10
2019-01-14T18:44:56.329Z,1518.37
2019-01-14T18:47:01.158Z,960.87
2019-01-14T18:49:08.307Z,631.40
2019-01-14T18:51:19.083Z,1026.60
2019-01-14T18:53:28.136Z,1010.13
2019-01-14T18:55:38.008Z,1049.90
2019-01-14T18:57:43.017Z,1142.50
2019-01-14T18:59:47.531Z,865.20
2019-01-14T19:01:51.898Z,668.17
2019-01-14T19:03:56.389Z,511.33
2019-01-14T19:06:03.550Z,349.43
2019-01-14T19:08:08.642Z,152.37
2019-01-14T19:10:13.463Z,50.90
2019-01-14T19:12:23.252Z,22.03
2019-01-14T19:14:36.871Z,10.90
2019-01-14T19:16:44.220Z,8.13
2019-01-14T19:18:51.601Z,2.37
2019-01-14T19:20:58.658Z,2.97
2019-01-14T19:23:04.688Z,2.10
2019-01-14T19:25:09.166Z,2.33
2019-01-14T19:27:16.567Z,3.80
2019-01-14T19:29:26.276Z,2.60
2019-01-14T19:31:30.862Z,2.50
2019-01-14T19:33:37.709Z,1.97
2019-01-14T19:35:45.980Z,2.20
2019-01-14T19:37:55.613Z,2.33
2019-01-14T19:40:04.712Z,1.73
2019-01-14T19:42:13.836Z,2.00
2019-01-14T19:44:18.745Z,1.73
2019-01-14T19:46:25.243Z,961.50
2019-01-14T19:48:30.673Z,1327.73
2019-01-14T19:50:35.070Z,1002.27
2019-01-14T19:52:39.716Z,652.03
2019-01-14T19:54:46.080Z,647.47
2019-01-14T19:56:55.246Z,566.53
2019-01-14T19:59:11.819Z,231.43
2019-01-14T20:01:16.515Z,63.67
2019-01-14T20:03:20.958Z,96.27
2019-01-14T20:05:31.922Z,219.37
2019-01-14T20:07:36.609Z,539.23
2019-01-14T20:09:41.676Z,902.27
2019-01-14T20:11:46.192Z,531.80
2019-01-14T20:13:56.264Z,228.03
2019-01-14T20:16:03.406Z,61.43
2019-01-14T20:18:11.529Z,515.50
2019-01-14T20:20:20.129Z,242.57
2019-01-14T20:22:28.378Z,369.57
2019-01-14T20:24:33.676Z,181.37
2019-01-14T20:26:38.102Z,43.60
2019-01-14T20:28:42.479Z,15.03
2019-01-14T20:30:47.461Z,8.00
2019-01-14T20:32:55.752Z,5.47
2019-01-14T20:35:00.693Z,4.20
2019-01-14T20:37:16.605Z,7.47
2019-01-14T20:39:21.958Z,16.17
2019-01-14T20:41:27.272Z,8.80
2019-01-14T20:43:32.837Z,2.93
2019-01-14T20:45:39.829Z,60.03
2019-01-14T20:47:47.461Z,107.13
2019-01-14T20:49:56.504Z,29.00
2019-01-14T20:52:03.798Z,11.57
2019-01-14T20:54:15.306Z,12.07
2019-01-14T20:56:22.253Z,2.90
2019-01-14T20:58:26.641Z,3.77
2019-01-14T21:00:32.121Z,3.40
2019-01-14T21:02:36.455Z,43.70
2019-01-14T21:04:49.894Z,19.37
2019-01-14T21:06:54.458Z,27.23
2019-01-14T21:08:59.389Z,189.13
2019-01-14T21:11:05.911Z,125.07
2019-01-14T21:13:13.430Z,73.03
2019-01-14T21:15:36.613Z,50.50
2019-01-14T21:17:43.891Z,8.97
2019-01-14T21:19:50.322Z,3.40
2019-01-14T21:21:56.135Z,5.07
2019-01-14T21:24:00.820Z,88.73
2019-01-14T21:26:06.135Z,354.03
2019-01-14T21:28:14.247Z,490.03
2019-01-14T21:30:22.404Z,515.20
2019-01-14T21:32:32.821Z,627.07
2019-01-14T21:34:37.862Z,517.70
2019-01-14T21:37:03.529Z,253.87
2019-01-14T21:39:16.560Z,718.50
2019-01-14T21:41:21.885Z,437.73
2019-01-14T21:43:32.473Z,143.97
2019-01-14T21:45:37.448Z,289.27
2019-01-14T21:47:42.272Z,199.37
2019-01-14T21:49:48.340Z,66.47
2019-01-14T21:51:53.836Z,392.53
2019-01-14T21:53:58.900Z,316.03
2019-01-14T21:56:03.720Z,1197.23
2019-01-14T21:58:09.731Z,784.33
2019-01-14T22:00:16.317Z,476.77
2019-01-14T22:02:21.464Z,180.50
2019-01-14T22:04:34.082Z,40.53
2019-01-14T22:06:38.439Z,5.80
2019-01-14T22:08:42.944Z,5.03
2019-01-14T22:10:46.994Z,91.30
2019-01-14T22:12:51.247Z,99.53
2019-01-14T22:14:55.504Z,511.60
2019-01-14T22:16:59.660Z,222.20
2019-01-14T22:19:04.011Z,533.87
2019-01-14T22:21:08.332Z,122.23
2019-01-14T22:23:12.538Z,26.80
2019-01-14T22:25:16.870Z,103.00
2019-01-14T22:27:24.950Z,577.90
2019-01-14T22:29:31.126Z,572.27
2019-01-14T22:31:37.925Z,355.83
2019-01-14T22:33:42.867Z,122.30
2019-01-14T22:35:47.018Z,21.97
2019-01-14T22:37:51.201Z,6.50
2019-01-14T22:39:55.625Z,6.80
2019-01-14T22:42:03.230Z,17.83
2019-01-14T22:44:10.564Z,132.37
2019-01-14T22:46:14.985Z,363.73
2019-01-14T22:48:19.088Z,620.73
2019-01-14T22:50:23.445Z,588.90
2019-01-14T22:52:27.541Z,485.40
2019-01-14T22:54:32.119Z,792.70
2019-01-14T22:56:36.199Z,913.40
2019-01-14T22:58:40.459Z,649.37
2019-01-14T23:01:14.723Z,444.17
2019-01-14T23:03:18.998Z,150.10
2019-01-14T23:05:25.517Z,35.17
2019-01-14T23:07:30.789Z,12.70
2019-01-14T23:09:34.974Z,9.27
2019-01-14T23:11:39.537Z,26.57
2019-01-14T23:13:43.981Z,6.80
2019-01-14T23:15:48.534Z,5.60
2019-01-14T23:17:52.694Z,3.97
2019-01-14T23:19:58.157Z,2.43
2019-01-14T23:22:10.390Z,3.23
2019-01-14T23:24:16.861Z,5.30
2019-01-14T23:26:21.715Z,3.60
2019-01-14T23:28:27.665Z,2.70
2019-01-14T23:30:32.595Z,4.03
2019-01-14T23:32:36.846Z,2.20
2019-01-14T23:34:41.175Z,2.20
2019-01-14T23:36:45.371Z,3.97
2019-01-14T23:38:49.646Z,6.33
2019-01-14T23:40:53.889Z,1.60
2019-01-14T23:42:59.065Z,1.93
2019-01-14T23:45:07.289Z,4.00
2019-01-14T23:47:18.576Z,2.50
2019-01-14T23:49:26.008Z,2.00
2019-01-14T23:51:30.194Z,2.23
2019-01-14T23:53:34.679Z,3.70
2019-01-14T23:55:38.881Z,1.97
2019-01-14T23:57:43.158Z,3.43
2019-01-14T23:59:47.294Z,1.93
